sensor_id;sensor_type;location;lat;lon;timestamp;P1;durP1;ratioP1;P2;durP2;ratioP2
11535;SDS011;5824;49.336;8.652;2023-08-01T00:01:02;12.83;;;5.53;;
11535;SDS011;5824;49.336;8.652;2023-08-01T00:03:28;9.07;;;5.67;;
11535;SDS011;5824;49.336;8.652;2023-08-01T00:05:53;11.90;;;5.70;;
11535;SDS011;5824;49.336;8.652;2023-08-01T00:08:20;8.63;;;5.57;;
11535;SDS011;5824;49.336;8.652;2023-08-01T00:10:46;7.47;;;5.10;;
11535;SDS011;5824;49.336;8.652;2023-08-01T00:13:11;12.93;;;6.23;;
11535;SDS011;5824;49.336;8.652;2023-08-01T00:15:37;12.90;;;5.67;;
11535;SDS011;5824;49.336;8.652;2023-08-01T00:18:02;11.87;;;5.83;;
11535;SDS011;5824;49.336;8.652;2023-08-01T00:20:28;14.33;;;6.43;;
11535;SDS011;5824;49.336;8.652;2023-08-01T00:22:54;13.80;;;6.50;;
11535;SDS011;5824;49.336;8.652;2023-08-01T00:25:19;9.30;;;5.77;;
11535;SDS011;5824;49.336;8.652;2023-08-01T00:27:45;13.00;;;6.20;;
11535;SDS011;5824;49.336;8.652;2023-08-01T00:30:11;8.40;;;6.33;;
11535;SDS011;5824;49.336;8.652;2023-08-01T00:32:36;13.83;;;6.20;;
11535;SDS011;5824;49.336;8.652;2023-08-01T00:35:03;10.90;;;6.20;;
11535;SDS011;5824;49.336;8.652;2023-08-01T00:37:29;8.50;;;5.80;;
11535;SDS011;5824;49.336;8.652;2023-08-01T00:39:54;11.20;;;6.10;;
11535;SDS011;5824;49.336;8.652;2023-08-01T00:42:20;13.40;;;6.83;;
11535;SDS011;5824;49.336;8.652;2023-08-01T00:44:45;13.80;;;6.07;;
11535;SDS011;5824;49.336;8.652;2023-08-01T00:47:13;11.87;;;7.03;;
11535;SDS011;5824;49.336;8.652;2023-08-01T00:49:39;9.27;;;5.83;;
11535;SDS011;5824;49.336;8.652;2023-08-01T00:52:05;10.20;;;6.20;;
11535;SDS011;5824;49.336;8.652;2023-08-01T00:54:31;10.80;;;5.80;;
11535;SDS011;5824;49.336;8.652;2023-08-01T00:57:01;9.20;;;5.83;;
11535;SDS011;5824;49.336;8.652;2023-08-01T00:59:28;12.70;;;6.20;;
11535;SDS011;5824;49.336;8.652;2023-08-01T01:01:54;9.93;;;6.20;;
11535;SDS011;5824;49.336;8.652;2023-08-01T01:04:19;9.50;;;6.17;;
11535;SDS011;5824;49.336;8.652;2023-08-01T01:06:47;10.10;;;5.83;;
11535;SDS011;5824;49.336;8.652;2023-08-01T01:09:33;8.60;;;5.73;;
11535;SDS011;5824;49.336;8.652;2023-08-01T01:11:59;12.37;;;6.07;;
11535;SDS011;5824;49.336;8.652;2023-08-01T01:14:26;11.17;;;6.13;;
11535;SDS011;5824;49.336;8.652;2023-08-01T01:16:52;11.37;;;5.60;;
11535;SDS011;5824;49.336;8.652;2023-08-01T01:19:17;13.10;;;7.10;;
11535;SDS011;5824;49.336;8.652;2023-08-01T01:21:43;11.50;;;6.20;;
11535;SDS011;5824;49.336;8.652;2023-08-01T01:24:10;10.80;;;5.87;;
11535;SDS011;5824;49.336;8.652;2023-08-01T01:26:37;9.40;;;6.10;;
11535;SDS011;5824;49.336;8.652;2023-08-01T01:29:03;10.20;;;5.67;;
11535;SDS011;5824;49.336;8.652;2023-08-01T01:31:31;8.60;;;5.30;;
11535;SDS011;5824;49.336;8.652;2023-08-01T01:33:57;6.77;;;4.63;;
11535;SDS011;5824;49.336;8.652;2023-08-01T01:36:23;10.37;;;5.40;;
11535;SDS011;5824;49.336;8.652;2023-08-01T01:38:49;10.07;;;5.80;;
11535;SDS011;5824;49.336;8.652;2023-08-01T01:41:14;9.03;;;5.80;;
11535;SDS011;5824;49.336;8.652;2023-08-01T01:43:40;12.50;;;5.63;;
11535;SDS011;5824;49.336;8.652;2023-08-01T01:46:06;7.80;;;5.10;;
11535;SDS011;5824;49.336;8.652;2023-08-01T01:48:31;7.90;;;5.07;;
11535;SDS011;5824;49.336;8.652;2023-08-01T01:50:57;8.90;;;5.37;;
11535;SDS011;5824;49.336;8.652;2023-08-01T01:53:22;8.87;;;5.43;;
11535;SDS011;5824;49.336;8.652;2023-08-01T01:55:48;8.73;;;5.53;;
11535;SDS011;5824;49.336;8.652;2023-08-01T01:58:13;7.90;;;5.13;;
11535;SDS011;5824;49.336;8.652;2023-08-01T02:00:39;9.77;;;5.40;;
11535;SDS011;5824;49.336;8.652;2023-08-01T02:03:04;9.80;;;5.90;;
11535;SDS011;5824;49.336;8.652;2023-08-01T02:05:32;10.53;;;5.87;;
11535;SDS011;5824;49.336;8.652;2023-08-01T02:07:57;10.43;;;5.40;;
11535;SDS011;5824;49.336;8.652;2023-08-01T02:10:23;11.27;;;5.80;;
11535;SDS011;5824;49.336;8.652;2023-08-01T02:12:49;9.43;;;5.43;;
11535;SDS011;5824;49.336;8.652;2023-08-01T02:15:15;10.10;;;5.90;;
11535;SDS011;5824;49.336;8.652;2023-08-01T02:17:40;9.23;;;5.20;;
11535;SDS011;5824;49.336;8.652;2023-08-01T02:20:06;9.67;;;5.70;;
11535;SDS011;5824;49.336;8.652;2023-08-01T02:22:32;14.77;;;5.93;;
11535;SDS011;5824;49.336;8.652;2023-08-01T02:24:58;9.57;;;5.50;;
11535;SDS011;5824;49.336;8.652;2023-08-01T02:27:23;10.70;;;6.27;;
11535;SDS011;5824;49.336;8.652;2023-08-01T02:29:49;9.33;;;5.40;;
11535;SDS011;5824;49.336;8.652;2023-08-01T02:32:15;10.37;;;6.20;;
11535;SDS011;5824;49.336;8.652;2023-08-01T02:34:41;10.43;;;5.70;;
11535;SDS011;5824;49.336;8.652;2023-08-01T02:37:07;11.40;;;5.70;;
11535;SDS011;5824;49.336;8.652;2023-08-01T02:39:32;11.07;;;5.57;;
11535;SDS011;5824;49.336;8.652;2023-08-01T02:41:58;9.30;;;5.63;;
11535;SDS011;5824;49.336;8.652;2023-08-01T02:44:23;9.63;;;5.60;;
11535;SDS011;5824;49.336;8.652;2023-08-01T02:46:49;11.50;;;6.00;;
11535;SDS011;5824;49.336;8.652;2023-08-01T02:49:14;7.53;;;5.47;;
11535;SDS011;5824;49.336;8.652;2023-08-01T02:51:40;7.20;;;5.30;;
11535;SDS011;5824;49.336;8.652;2023-08-01T02:54:06;9.30;;;5.70;;
11535;SDS011;5824;49.336;8.652;2023-08-01T02:56:31;11.40;;;5.40;;
11535;SDS011;5824;49.336;8.652;2023-08-01T02:58:56;11.60;;;5.47;;
11535;SDS011;5824;49.336;8.652;2023-08-01T03:01:22;11.60;;;5.70;;
11535;SDS011;5824;49.336;8.652;2023-08-01T03:03:48;10.33;;;5.70;;
11535;SDS011;5824;49.336;8.652;2023-08-01T03:06:13;15.50;;;6.10;;
11535;SDS011;5824;49.336;8.652;2023-08-01T03:08:39;11.20;;;5.60;;
11535;SDS011;5824;49.336;8.652;2023-08-01T03:11:05;14.00;;;5.30;;
11535;SDS011;5824;49.336;8.652;2023-08-01T03:13:30;14.13;;;6.40;;
11535;SDS011;5824;49.336;8.652;2023-08-01T03:15:56;7.10;;;4.80;;
11535;SDS011;5824;49.336;8.652;2023-08-01T03:18:21;11.60;;;5.50;;
11535;SDS011;5824;49.336;8.652;2023-08-01T03:20:47;12.77;;;6.03;;
11535;SDS011;5824;49.336;8.652;2023-08-01T03:23:13;11.33;;;6.20;;
11535;SDS011;5824;49.336;8.652;2023-08-01T03:25:38;12.60;;;5.90;;
11535;SDS011;5824;49.336;8.652;2023-08-01T03:28:04;12.60;;;5.67;;
11535;SDS011;5824;49.336;8.652;2023-08-01T03:30:31;12.60;;;5.70;;
11535;SDS011;5824;49.336;8.652;2023-08-01T03:32:57;14.60;;;6.37;;
11535;SDS011;5824;49.336;8.652;2023-08-01T03:35:22;9.80;;;5.03;;
11535;SDS011;5824;49.336;8.652;2023-08-01T03:37:49;12.70;;;6.13;;
11535;SDS011;5824;49.336;8.652;2023-08-01T03:40:14;11.10;;;5.60;;
11535;SDS011;5824;49.336;8.652;2023-08-01T03:42:40;10.67;;;5.83;;
11535;SDS011;5824;49.336;8.652;2023-08-01T03:45:06;11.83;;;5.87;;
11535;SDS011;5824;49.336;8.652;2023-08-01T03:47:32;8.40;;;5.53;;
11535;SDS011;5824;49.336;8.652;2023-08-01T03:49:57;9.23;;;5.23;;
11535;SDS011;5824;49.336;8.652;2023-08-01T03:52:23;10.17;;;6.07;;
11535;SDS011;5824;49.336;8.652;2023-08-01T03:54:49;14.53;;;6.27;;
11535;SDS011;5824;49.336;8.652;2023-08-01T03:57:18;13.00;;;6.20;;
11535;SDS011;5824;49.336;8.652;2023-08-01T03:59:44;9.00;;;5.40;;
11535;SDS011;5824;49.336;8.652;2023-08-01T04:02:10;7.73;;;5.20;;
11535;SDS011;5824;49.336;8.652;2023-08-01T04:04:36;11.83;;;5.27;;
11535;SDS011;5824;49.336;8.652;2023-08-01T04:07:01;15.40;;;5.70;;
11535;SDS011;5824;49.336;8.652;2023-08-01T04:09:27;11.27;;;5.53;;
11535;SDS011;5824;49.336;8.652;2023-08-01T04:11:53;10.43;;;5.17;;
11535;SDS011;5824;49.336;8.652;2023-08-01T04:14:18;10.90;;;5.33;;
11535;SDS011;5824;49.336;8.652;2023-08-01T04:16:44;13.80;;;5.50;;
11535;SDS011;5824;49.336;8.652;2023-08-01T04:19:10;11.43;;;5.20;;
11535;SDS011;5824;49.336;8.652;2023-08-01T04:21:36;9.67;;;5.40;;
11535;SDS011;5824;49.336;8.652;2023-08-01T04:24:01;10.17;;;5.40;;
11535;SDS011;5824;49.336;8.652;2023-08-01T04:26:27;12.23;;;5.67;;
11535;SDS011;5824;49.336;8.652;2023-08-01T04:28:52;11.27;;;6.07;;
11535;SDS011;5824;49.336;8.652;2023-08-01T04:31:18;12.37;;;5.20;;
11535;SDS011;5824;49.336;8.652;2023-08-01T04:33:43;9.43;;;5.33;;
11535;SDS011;5824;49.336;8.652;2023-08-01T04:36:09;10.67;;;5.43;;
11535;SDS011;5824;49.336;8.652;2023-08-01T04:38:35;9.90;;;5.87;;
11535;SDS011;5824;49.336;8.652;2023-08-01T04:41:00;13.87;;;5.13;;
11535;SDS011;5824;49.336;8.652;2023-08-01T04:43:27;10.20;;;4.67;;
11535;SDS011;5824;49.336;8.652;2023-08-01T04:45:53;13.83;;;5.30;;
11535;SDS011;5824;49.336;8.652;2023-08-01T04:48:18;13.70;;;5.70;;
11535;SDS011;5824;49.336;8.652;2023-08-01T04:50:44;9.97;;;5.73;;
11535;SDS011;5824;49.336;8.652;2023-08-01T04:53:10;12.53;;;5.10;;
11535;SDS011;5824;49.336;8.652;2023-08-01T04:55:36;9.47;;;5.13;;
11535;SDS011;5824;49.336;8.652;2023-08-01T04:58:01;9.90;;;5.70;;
11535;SDS011;5824;49.336;8.652;2023-08-01T05:00:27;9.27;;;5.20;;
11535;SDS011;5824;49.336;8.652;2023-08-01T05:02:53;8.07;;;5.13;;
11535;SDS011;5824;49.336;8.652;2023-08-01T05:05:18;11.00;;;5.20;;
11535;SDS011;5824;49.336;8.652;2023-08-01T05:07:44;8.80;;;5.33;;
11535;SDS011;5824;49.336;8.652;2023-08-01T05:10:09;10.47;;;5.60;;
11535;SDS011;5824;49.336;8.652;2023-08-01T05:12:35;15.43;;;6.00;;
11535;SDS011;5824;49.336;8.652;2023-08-01T05:15:00;11.27;;;5.77;;
11535;SDS011;5824;49.336;8.652;2023-08-01T05:17:26;15.90;;;5.20;;
11535;SDS011;5824;49.336;8.652;2023-08-01T05:19:51;12.73;;;5.77;;
11535;SDS011;5824;49.336;8.652;2023-08-01T05:22:17;15.23;;;5.60;;
11535;SDS011;5824;49.336;8.652;2023-08-01T05:24:42;13.03;;;6.07;;
11535;SDS011;5824;49.336;8.652;2023-08-01T05:27:08;14.53;;;5.23;;
11535;SDS011;5824;49.336;8.652;2023-08-01T05:29:33;12.27;;;5.80;;
11535;SDS011;5824;49.336;8.652;2023-08-01T05:31:59;12.80;;;5.90;;
11535;SDS011;5824;49.336;8.652;2023-08-01T05:34:24;9.20;;;5.33;;
11535;SDS011;5824;49.336;8.652;2023-08-01T05:36:50;10.30;;;5.40;;
11535;SDS011;5824;49.336;8.652;2023-08-01T05:39:16;11.00;;;5.20;;
11535;SDS011;5824;49.336;8.652;2023-08-01T05:41:42;11.40;;;6.00;;
11535;SDS011;5824;49.336;8.652;2023-08-01T05:44:07;16.03;;;6.03;;
11535;SDS011;5824;49.336;8.652;2023-08-01T05:46:33;13.40;;;6.70;;
11535;SDS011;5824;49.336;8.652;2023-08-01T05:48:59;19.23;;;6.93;;
11535;SDS011;5824;49.336;8.652;2023-08-01T05:51:24;19.03;;;6.53;;
11535;SDS011;5824;49.336;8.652;2023-08-01T05:53:50;14.00;;;7.10;;
11535;SDS011;5824;49.336;8.652;2023-08-01T05:56:15;13.17;;;6.20;;
11535;SDS011;5824;49.336;8.652;2023-08-01T05:58:41;7.97;;;5.67;;
11535;SDS011;5824;49.336;8.652;2023-08-01T06:01:07;11.63;;;6.03;;
11535;SDS011;5824;49.336;8.652;2023-08-01T06:03:34;10.03;;;5.60;;
11535;SDS011;5824;49.336;8.652;2023-08-01T06:05:59;11.87;;;6.73;;
11535;SDS011;5824;49.336;8.652;2023-08-01T06:08:25;14.10;;;6.77;;
11535;SDS011;5824;49.336;8.652;2023-08-01T06:10:50;12.97;;;7.00;;
11535;SDS011;5824;49.336;8.652;2023-08-01T06:13:16;14.00;;;6.63;;
11535;SDS011;5824;49.336;8.652;2023-08-01T06:15:41;14.83;;;6.83;;
11535;SDS011;5824;49.336;8.652;2023-08-01T06:18:07;13.77;;;6.30;;
11535;SDS011;5824;49.336;8.652;2023-08-01T06:20:32;16.67;;;6.50;;
11535;SDS011;5824;49.336;8.652;2023-08-01T06:22:58;11.57;;;6.37;;
11535;SDS011;5824;49.336;8.652;2023-08-01T06:25:24;12.10;;;6.00;;
11535;SDS011;5824;49.336;8.652;2023-08-01T06:27:49;17.03;;;7.47;;
11535;SDS011;5824;49.336;8.652;2023-08-01T06:30:15;11.90;;;5.80;;
11535;SDS011;5824;49.336;8.652;2023-08-01T06:32:40;11.07;;;6.90;;
11535;SDS011;5824;49.336;8.652;2023-08-01T06:35:06;10.67;;;6.53;;
11535;SDS011;5824;49.336;8.652;2023-08-01T06:37:32;11.20;;;6.00;;
11535;SDS011;5824;49.336;8.652;2023-08-01T06:39:57;14.20;;;6.50;;
11535;SDS011;5824;49.336;8.652;2023-08-01T06:42:24;9.50;;;6.10;;
11535;SDS011;5824;49.336;8.652;2023-08-01T06:44:49;10.83;;;5.90;;
11535;SDS011;5824;49.336;8.652;2023-08-01T06:47:15;9.20;;;5.87;;
11535;SDS011;5824;49.336;8.652;2023-08-01T06:49:40;11.83;;;6.17;;
11535;SDS011;5824;49.336;8.652;2023-08-01T06:52:06;18.93;;;5.97;;
11535;SDS011;5824;49.336;8.652;2023-08-01T06:54:32;13.00;;;4.87;;
11535;SDS011;5824;49.336;8.652;2023-08-01T06:56:57;8.73;;;5.43;;
11535;SDS011;5824;49.336;8.652;2023-08-01T06:59:24;8.00;;;4.97;;
11535;SDS011;5824;49.336;8.652;2023-08-01T07:01:50;9.80;;;5.20;;
11535;SDS011;5824;49.336;8.652;2023-08-01T07:04:16;14.20;;;4.50;;
11535;SDS011;5824;49.336;8.652;2023-08-01T07:06:41;11.53;;;5.47;;
11535;SDS011;5824;49.336;8.652;2023-08-01T07:09:07;8.20;;;4.77;;
11535;SDS011;5824;49.336;8.652;2023-08-01T07:11:33;8.90;;;5.03;;
11535;SDS011;5824;49.336;8.652;2023-08-01T07:13:58;9.53;;;4.57;;
11535;SDS011;5824;49.336;8.652;2023-08-01T07:16:24;8.73;;;4.57;;
11535;SDS011;5824;49.336;8.652;2023-08-01T07:18:49;8.30;;;4.57;;
11535;SDS011;5824;49.336;8.652;2023-08-01T07:21:16;18.17;;;5.83;;
11535;SDS011;5824;49.336;8.652;2023-08-01T07:23:42;6.27;;;4.20;;
11535;SDS011;5824;49.336;8.652;2023-08-01T07:26:08;8.60;;;4.80;;
11535;SDS011;5824;49.336;8.652;2023-08-01T07:28:34;6.13;;;3.93;;
11535;SDS011;5824;49.336;8.652;2023-08-01T07:31:00;9.17;;;4.33;;
11535;SDS011;5824;49.336;8.652;2023-08-01T07:33:26;11.23;;;4.57;;
11535;SDS011;5824;49.336;8.652;2023-08-01T07:35:52;7.27;;;4.60;;
11535;SDS011;5824;49.336;8.652;2023-08-01T07:38:18;10.30;;;4.60;;
11535;SDS011;5824;49.336;8.652;2023-08-01T07:40:43;6.97;;;4.20;;
11535;SDS011;5824;49.336;8.652;2023-08-01T07:43:09;7.70;;;4.70;;
11535;SDS011;5824;49.336;8.652;2023-08-01T07:45:34;6.50;;;4.83;;
11535;SDS011;5824;49.336;8.652;2023-08-01T07:48:00;8.53;;;4.87;;
11535;SDS011;5824;49.336;8.652;2023-08-01T07:50:26;8.13;;;4.60;;
11535;SDS011;5824;49.336;8.652;2023-08-01T07:52:51;7.67;;;4.90;;
11535;SDS011;5824;49.336;8.652;2023-08-01T07:55:17;11.13;;;4.90;;
11535;SDS011;5824;49.336;8.652;2023-08-01T07:57:43;6.53;;;4.50;;
11535;SDS011;5824;49.336;8.652;2023-08-01T08:00:09;10.93;;;4.30;;
11535;SDS011;5824;49.336;8.652;2023-08-01T08:02:35;7.70;;;4.50;;
11535;SDS011;5824;49.336;8.652;2023-08-01T08:05:01;9.80;;;5.30;;
11535;SDS011;5824;49.336;8.652;2023-08-01T08:07:27;6.37;;;4.60;;
11535;SDS011;5824;49.336;8.652;2023-08-01T08:09:52;6.97;;;4.37;;
11535;SDS011;5824;49.336;8.652;2023-08-01T08:12:20;7.43;;;4.10;;
11535;SDS011;5824;49.336;8.652;2023-08-01T08:14:46;9.43;;;4.83;;
11535;SDS011;5824;49.336;8.652;2023-08-01T08:17:12;6.83;;;4.40;;
11535;SDS011;5824;49.336;8.652;2023-08-01T08:19:37;8.60;;;4.63;;
11535;SDS011;5824;49.336;8.652;2023-08-01T08:22:03;6.73;;;4.30;;
11535;SDS011;5824;49.336;8.652;2023-08-01T08:24:29;13.00;;;4.93;;
11535;SDS011;5824;49.336;8.652;2023-08-01T08:26:54;6.03;;;4.43;;
11535;SDS011;5824;49.336;8.652;2023-08-01T08:29:20;6.67;;;4.50;;
11535;SDS011;5824;49.336;8.652;2023-08-01T08:31:46;6.40;;;4.33;;
11535;SDS011;5824;49.336;8.652;2023-08-01T08:34:12;7.43;;;4.20;;
11535;SDS011;5824;49.336;8.652;2023-08-01T08:36:37;8.40;;;5.10;;
11535;SDS011;5824;49.336;8.652;2023-08-01T08:39:03;5.80;;;4.37;;
11535;SDS011;5824;49.336;8.652;2023-08-01T08:41:29;7.37;;;4.23;;
11535;SDS011;5824;49.336;8.652;2023-08-01T08:44:00;6.20;;;3.90;;
11535;SDS011;5824;49.336;8.652;2023-08-01T08:46:29;6.30;;;4.40;;
11535;SDS011;5824;49.336;8.652;2023-08-01T08:48:56;7.73;;;4.20;;
11535;SDS011;5824;49.336;8.652;2023-08-01T08:51:22;7.30;;;4.07;;
11535;SDS011;5824;49.336;8.652;2023-08-01T08:53:51;7.80;;;4.23;;
11535;SDS011;5824;49.336;8.652;2023-08-01T08:56:19;5.70;;;3.77;;
11535;SDS011;5824;49.336;8.652;2023-08-01T08:58:45;5.93;;;3.67;;
11535;SDS011;5824;49.336;8.652;2023-08-01T09:01:12;5.83;;;3.33;;
11535;SDS011;5824;49.336;8.652;2023-08-01T09:03:38;5.17;;;3.60;;
11535;SDS011;5824;49.336;8.652;2023-08-01T09:06:04;5.90;;;3.20;;
11535;SDS011;5824;49.336;8.652;2023-08-01T09:08:35;5.13;;;3.20;;
11535;SDS011;5824;49.336;8.652;2023-08-01T09:11:03;4.97;;;2.67;;
11535;SDS011;5824;49.336;8.652;2023-08-01T09:13:29;4.27;;;2.60;;
11535;SDS011;5824;49.336;8.652;2023-08-01T09:15:55;6.60;;;2.20;;
11535;SDS011;5824;49.336;8.652;2023-08-01T09:18:21;4.37;;;2.50;;
11535;SDS011;5824;49.336;8.652;2023-08-01T09:20:47;4.40;;;2.53;;
11535;SDS011;5824;49.336;8.652;2023-08-01T09:23:14;4.60;;;2.33;;
11535;SDS011;5824;49.336;8.652;2023-08-01T09:25:42;4.77;;;2.60;;
11535;SDS011;5824;49.336;8.652;2023-08-01T09:28:21;3.10;;;2.00;;
11535;SDS011;5824;49.336;8.652;2023-08-01T09:30:48;5.77;;;2.30;;
11535;SDS011;5824;49.336;8.652;2023-08-01T09:33:15;21.53;;;2.57;;
11535;SDS011;5824;49.336;8.652;2023-08-01T09:35:41;8.20;;;2.53;;
11535;SDS011;5824;49.336;8.652;2023-08-01T09:38:09;3.70;;;2.27;;
11535;SDS011;5824;49.336;8.652;2023-08-01T09:40:37;3.50;;;2.00;;
11535;SDS011;5824;49.336;8.652;2023-08-01T09:43:03;3.13;;;1.90;;
11535;SDS011;5824;49.336;8.652;2023-08-01T09:45:29;2.93;;;1.97;;
11535;SDS011;5824;49.336;8.652;2023-08-01T09:47:54;4.10;;;1.80;;
11535;SDS011;5824;49.336;8.652;2023-08-01T09:50:21;2.40;;;1.50;;
11535;SDS011;5824;49.336;8.652;2023-08-01T09:52:48;2.80;;;1.67;;
11535;SDS011;5824;49.336;8.652;2023-08-01T09:55:19;2.80;;;1.50;;
11535;SDS011;5824;49.336;8.652;2023-08-01T09:57:56;2.20;;;1.30;;
11535;SDS011;5824;49.336;8.652;2023-08-01T10:00:23;3.57;;;1.40;;
11535;SDS011;5824;49.336;8.652;2023-08-01T10:02:51;2.40;;;1.30;;
11535;SDS011;5824;49.336;8.652;2023-08-01T10:05:18;2.13;;;1.20;;
11535;SDS011;5824;49.336;8.652;2023-08-01T10:07:44;2.87;;;1.47;;
11535;SDS011;5824;49.336;8.652;2023-08-01T10:10:11;2.80;;;1.40;;
11535;SDS011;5824;49.336;8.652;2023-08-01T10:12:37;2.73;;;1.43;;
11535;SDS011;5824;49.336;8.652;2023-08-01T10:15:04;5.13;;;1.57;;
11535;SDS011;5824;49.336;8.652;2023-08-01T10:17:30;3.23;;;1.40;;
11535;SDS011;5824;49.336;8.652;2023-08-01T10:19:59;2.50;;;1.53;;
11535;SDS011;5824;49.336;8.652;2023-08-01T10:22:25;2.50;;;1.40;;
11535;SDS011;5824;49.336;8.652;2023-08-01T10:24:51;2.43;;;1.40;;
11535;SDS011;5824;49.336;8.652;2023-08-01T10:27:20;2.50;;;1.30;;
11535;SDS011;5824;49.336;8.652;2023-08-01T10:30:08;4.30;;;1.60;;
11535;SDS011;5824;49.336;8.652;2023-08-01T10:32:35;2.70;;;1.27;;
11535;SDS011;5824;49.336;8.652;2023-08-01T10:35:01;2.50;;;1.45;;
11535;SDS011;5824;49.336;8.652;2023-08-01T10:37:41;2.88;;;1.23;;
11535;SDS011;5824;49.336;8.652;2023-08-01T10:40:07;2.85;;;1.50;;
11535;SDS011;5824;49.336;8.652;2023-08-01T10:42:43;3.38;;;1.60;;
11535;SDS011;5824;49.336;8.652;2023-08-01T10:45:30;2.60;;;1.30;;
11535;SDS011;5824;49.336;8.652;2023-08-01T10:48:05;4.35;;;1.30;;
11535;SDS011;5824;49.336;8.652;2023-08-01T10:50:32;2.90;;;1.38;;
11535;SDS011;5824;49.336;8.652;2023-08-01T10:53:04;3.10;;;1.52;;
11535;SDS011;5824;49.336;8.652;2023-08-01T10:55:39;2.60;;;1.30;;
11535;SDS011;5824;49.336;8.652;2023-08-01T10:58:05;2.78;;;1.50;;
11535;SDS011;5824;49.336;8.652;2023-08-01T11:00:31;2.70;;;1.50;;
11535;SDS011;5824;49.336;8.652;2023-08-01T11:02:56;2.65;;;1.50;;
11535;SDS011;5824;49.336;8.652;2023-08-01T11:05:22;3.17;;;1.60;;
11535;SDS011;5824;49.336;8.652;2023-08-01T11:10:21;7.18;;;1.52;;
11535;SDS011;5824;49.336;8.652;2023-08-01T11:12:47;5.90;;;1.80;;
11535;SDS011;5824;49.336;8.652;2023-08-01T11:15:13;3.00;;;1.70;;
11535;SDS011;5824;49.336;8.652;2023-08-01T11:17:50;3.88;;;1.70;;
11535;SDS011;5824;49.336;8.652;2023-08-01T11:20:18;4.18;;;1.70;;
11535;SDS011;5824;49.336;8.652;2023-08-01T11:22:58;3.72;;;1.50;;
11535;SDS011;5824;49.336;8.652;2023-08-01T11:28:06;3.60;;;1.77;;
11535;SDS011;5824;49.336;8.652;2023-08-01T11:30:34;3.20;;;1.50;;
11535;SDS011;5824;49.336;8.652;2023-08-01T11:33:00;3.73;;;2.00;;
11535;SDS011;5824;49.336;8.652;2023-08-01T11:35:28;4.70;;;2.20;;
11535;SDS011;5824;49.336;8.652;2023-08-01T11:37:54;4.00;;;2.07;;
11535;SDS011;5824;49.336;8.652;2023-08-01T11:40:20;5.60;;;1.93;;
11535;SDS011;5824;49.336;8.652;2023-08-01T11:42:49;3.30;;;1.90;;
11535;SDS011;5824;49.336;8.652;2023-08-01T11:45:18;3.20;;;1.70;;
11535;SDS011;5824;49.336;8.652;2023-08-01T11:47:47;4.60;;;1.80;;
11535;SDS011;5824;49.336;8.652;2023-08-01T11:50:13;2.80;;;1.70;;
11535;SDS011;5824;49.336;8.652;2023-08-01T11:52:39;2.90;;;1.70;;
11535;SDS011;5824;49.336;8.652;2023-08-01T11:55:05;3.13;;;1.88;;
11535;SDS011;5824;49.336;8.652;2023-08-01T11:57:31;3.17;;;1.80;;
11535;SDS011;5824;49.336;8.652;2023-08-01T11:59:56;2.95;;;1.83;;
11535;SDS011;5824;49.336;8.652;2023-08-01T12:04:48;4.22;;;1.75;;
11535;SDS011;5824;49.336;8.652;2023-08-01T12:07:14;5.90;;;1.90;;
11535;SDS011;5824;49.336;8.652;2023-08-01T12:09:41;3.53;;;2.00;;
11535;SDS011;5824;49.336;8.652;2023-08-01T12:12:06;6.33;;;2.20;;
11535;SDS011;5824;49.336;8.652;2023-08-01T12:14:33;3.17;;;1.73;;
11535;SDS011;5824;49.336;8.652;2023-08-01T12:16:58;4.20;;;1.90;;
11535;SDS011;5824;49.336;8.652;2023-08-01T12:19:24;4.80;;;2.13;;
11535;SDS011;5824;49.336;8.652;2023-08-01T12:21:49;4.50;;;1.90;;
11535;SDS011;5824;49.336;8.652;2023-08-01T12:24:15;5.87;;;2.03;;
11535;SDS011;5824;49.336;8.652;2023-08-01T12:26:41;4.80;;;2.17;;
11535;SDS011;5824;49.336;8.652;2023-08-01T12:29:06;4.97;;;2.00;;
11535;SDS011;5824;49.336;8.652;2023-08-01T12:31:32;3.80;;;2.10;;
11535;SDS011;5824;49.336;8.652;2023-08-01T12:33:58;4.53;;;2.00;;
11535;SDS011;5824;49.336;8.652;2023-08-01T12:36:23;3.43;;;2.07;;
11535;SDS011;5824;49.336;8.652;2023-08-01T12:38:49;3.22;;;1.92;;
11535;SDS011;5824;49.336;8.652;2023-08-01T12:41:15;4.83;;;2.17;;
11535;SDS011;5824;49.336;8.652;2023-08-01T12:43:41;3.47;;;2.00;;
11535;SDS011;5824;49.336;8.652;2023-08-01T12:46:06;3.67;;;2.30;;
11535;SDS011;5824;49.336;8.652;2023-08-01T12:48:32;3.07;;;1.77;;
11535;SDS011;5824;49.336;8.652;2023-08-01T12:50:57;3.60;;;2.00;;
11535;SDS011;5824;49.336;8.652;2023-08-01T12:53:23;3.47;;;1.83;;
11535;SDS011;5824;49.336;8.652;2023-08-01T12:55:49;4.13;;;2.30;;
11535;SDS011;5824;49.336;8.652;2023-08-01T12:58:15;4.33;;;2.10;;
11535;SDS011;5824;49.336;8.652;2023-08-01T13:00:42;3.93;;;2.00;;
11535;SDS011;5824;49.336;8.652;2023-08-01T13:03:09;4.30;;;2.00;;
11535;SDS011;5824;49.336;8.652;2023-08-01T13:05:35;3.63;;;2.17;;
11535;SDS011;5824;49.336;8.652;2023-08-01T13:08:02;5.13;;;2.10;;
11535;SDS011;5824;49.336;8.652;2023-08-01T13:10:31;4.60;;;2.30;;
11535;SDS011;5824;49.336;8.652;2023-08-01T13:12:58;4.35;;;1.90;;
11535;SDS011;5824;49.336;8.652;2023-08-01T13:15:24;3.17;;;1.95;;
11535;SDS011;5824;49.336;8.652;2023-08-01T13:17:50;3.63;;;1.58;;
11535;SDS011;5824;49.336;8.652;2023-08-01T13:20:16;3.35;;;2.03;;
11535;SDS011;5824;49.336;8.652;2023-08-01T13:22:42;3.58;;;1.90;;
11535;SDS011;5824;49.336;8.652;2023-08-01T13:25:09;3.70;;;1.95;;
11535;SDS011;5824;49.336;8.652;2023-08-01T13:27:35;3.72;;;1.98;;
11535;SDS011;5824;49.336;8.652;2023-08-01T13:30:01;3.03;;;1.85;;
11535;SDS011;5824;49.336;8.652;2023-08-01T13:32:27;3.80;;;1.83;;
11535;SDS011;5824;49.336;8.652;2023-08-01T13:34:53;2.70;;;1.70;;
11535;SDS011;5824;49.336;8.652;2023-08-01T13:37:18;4.17;;;2.00;;
11535;SDS011;5824;49.336;8.652;2023-08-01T13:39:44;3.33;;;2.00;;
11535;SDS011;5824;49.336;8.652;2023-08-01T13:42:11;4.93;;;2.00;;
11535;SDS011;5824;49.336;8.652;2023-08-01T13:44:37;3.63;;;2.00;;
11535;SDS011;5824;49.336;8.652;2023-08-01T13:47:02;5.00;;;1.90;;
11535;SDS011;5824;49.336;8.652;2023-08-01T13:49:28;4.83;;;1.90;;
11535;SDS011;5824;49.336;8.652;2023-08-01T13:51:54;3.80;;;2.00;;
11535;SDS011;5824;49.336;8.652;2023-08-01T13:54:19;3.20;;;1.70;;
11535;SDS011;5824;49.336;8.652;2023-08-01T13:56:45;3.22;;;1.70;;
11535;SDS011;5824;49.336;8.652;2023-08-01T13:59:11;3.92;;;1.67;;
11535;SDS011;5824;49.336;8.652;2023-08-01T14:01:36;3.20;;;1.90;;
11535;SDS011;5824;49.336;8.652;2023-08-01T14:04:03;3.40;;;1.95;;
11535;SDS011;5824;49.336;8.652;2023-08-01T14:06:29;3.60;;;1.85;;
11535;SDS011;5824;49.336;8.652;2023-08-01T14:08:55;3.40;;;1.70;;
11535;SDS011;5824;49.336;8.652;2023-08-01T14:11:20;4.55;;;1.88;;
11535;SDS011;5824;49.336;8.652;2023-08-01T14:13:46;3.72;;;1.75;;
11535;SDS011;5824;49.336;8.652;2023-08-01T14:16:11;3.45;;;2.10;;
11535;SDS011;5824;49.336;8.652;2023-08-01T14:18:37;2.65;;;1.60;;
11535;SDS011;5824;49.336;8.652;2023-08-01T14:21:03;3.47;;;1.90;;
11535;SDS011;5824;49.336;8.652;2023-08-01T14:23:29;3.30;;;1.90;;
11535;SDS011;5824;49.336;8.652;2023-08-01T14:25:57;4.47;;;1.83;;
11535;SDS011;5824;49.336;8.652;2023-08-01T14:28:23;3.60;;;1.95;;
11535;SDS011;5824;49.336;8.652;2023-08-01T14:30:48;7.32;;;1.85;;
11535;SDS011;5824;49.336;8.652;2023-08-01T14:33:14;2.97;;;1.80;;
11535;SDS011;5824;49.336;8.652;2023-08-01T14:35:40;4.80;;;2.00;;
11535;SDS011;5824;49.336;8.652;2023-08-01T14:38:05;5.38;;;1.95;;
11535;SDS011;5824;49.336;8.652;2023-08-01T14:40:31;3.03;;;1.52;;
11535;SDS011;5824;49.336;8.652;2023-08-01T14:42:59;3.60;;;1.80;;
11535;SDS011;5824;49.336;8.652;2023-08-01T14:45:24;3.40;;;1.80;;
11535;SDS011;5824;49.336;8.652;2023-08-01T14:47:50;3.60;;;1.85;;
11535;SDS011;5824;49.336;8.652;2023-08-01T14:50:16;3.40;;;1.85;;
11535;SDS011;5824;49.336;8.652;2023-08-01T14:52:41;3.92;;;1.92;;
11535;SDS011;5824;49.336;8.652;2023-08-01T14:55:07;4.13;;;1.80;;
11535;SDS011;5824;49.336;8.652;2023-08-01T14:57:33;4.85;;;2.00;;